Time;durP1;ratioP1;P1;durP2;ratioP2;P2;SDS_P1;SDS_P2;PMS_P1;PMS_P2;Temp;Humidity;BMP_temperature;BMP_pressure;BME280_temperature;BME280_humidity;BME280_pressure;Samples;Min_cycle;Max_cycle;Signal;HPM_P1;HPM_P2
2022/12/06 00:00:11;;;;;;;2.13;1.48;;;;;;;15.68;84.97;101689.25;20928426;28;20048;-84
2022/12/06 00:10:12;;;;;;;1.85;1.25;;;;;;;15.68;84.80;101694.63;20941474;28;20048;-84
2022/12/06 00:20:14;;;;;;;1.83;1.38;;;;;;;15.66;84.71;101683.97;20942823;28;20048;-83
2022/12/06 00:30:16;;;;;;;1.20;1.00;;;;;;;15.60;84.72;101662.06;20864872;28;20107;-83
2022/12/06 00:40:17;;;;;;;2.08;1.23;;;;;;;15.69;84.89;101679.38;20860073;28;20055;-83
2022/12/06 00:50:19;;;;;;;1.10;1.00;;;;;;;15.69;84.75;101679.38;20877319;28;20052;-84
2022/12/06 01:00:20;;;;;;;1.60;1.10;;;;;;;15.67;84.93;101666.06;20876670;28;20053;-83
2022/12/06 01:10:22;;;;;;;1.73;1.08;;;;;;;15.69;84.65;101674.00;20841798;28;20048;-83
2022/12/06 01:20:23;;;;;;;2.03;1.30;;;;;;;15.68;84.83;101675.84;20862718;28;20122;-83
2022/12/06 01:30:25;;;;;;;1.25;1.10;;;;;;;15.68;84.81;101673.16;20887271;28;20057;-84
2022/12/06 01:40:26;;;;;;;1.80;1.10;;;;;;;15.69;84.57;101674.88;20874922;28;20079;-84
2022/12/06 01:50:31;;;;;;;1.33;0.90;;;;;;;15.67;84.68;101660.69;20873260;28;20049;-84
2022/12/06 02:00:33;;;;;;;1.70;1.07;;;;;;;15.64;84.65;101652.84;20874134;28;20037;-84
2022/12/06 02:10:36;;;;;;;1.75;0.93;;;;;;;15.69;84.50;101655.22;20874063;28;20060;-83
2022/12/06 02:20:44;;;;;;;1.02;0.70;;;;;;;15.69;84.86;101641.78;20853917;28;20052;-84
2022/12/06 02:30:54;;;;;;;1.35;0.98;;;;;;;15.36;84.39;101584.91;20865653;28;20519;-83
2022/12/06 02:40:59;;;;;;;1.40;0.90;;;;;;;15.67;84.58;101636.53;20869490;28;20048;-84
2022/12/06 02:51:05;;;;;;;1.05;0.95;;;;;;;15.57;84.53;101628.22;20886948;28;20481;-83
2022/12/06 03:01:13;;;;;;;1.35;0.90;;;;;;;15.68;84.56;101640.94;20885967;28;20049;-84
2022/12/06 03:11:15;;;;;;;2.15;1.00;;;;;;;15.37;84.47;101589.31;20867461;28;20114;-84
2022/12/06 03:21:37;;;;;;;1.02;0.75;;;;;;;15.68;84.52;101632.88;20882436;28;20094;-83
2022/12/06 03:31:40;;;;;;;1.00;0.65;;;;;;;15.54;84.55;101606.13;20864894;28;20110;-84
2022/12/06 03:41:45;;;;;;;1.30;0.85;;;;;;;15.30;84.31;101563.88;20832957;28;20056;-84
2022/12/06 03:51:47;;;;;;;1.40;0.82;;;;;;;15.38;84.53;101574.94;20864677;28;20061;-84
2022/12/06 04:01:48;;;;;;;1.20;0.73;;;;;;;15.68;84.31;101623.97;20881024;28;20052;-84
2022/12/06 04:11:50;;;;;;;1.50;0.82;;;;;;;15.68;84.26;101613.22;20880215;28;20501;-83
2022/12/06 04:52:51;;;;;;;0.70;0.60;;;;;;;15.63;84.17;101592.06;20877531;28;20056;-84
2022/12/06 05:02:53;;;;;;;1.70;0.80;;;;;;;15.28;84.03;101530.94;20876017;28;20053;-84
2022/12/06 05:12:54;;;;;;;0.80;0.50;;;;;;;15.66;84.28;101583.81;20858602;28;20871;-84
2022/12/06 05:22:56;;;;;;;1.05;0.60;;;;;;;15.68;84.18;101586.38;20892195;28;20068;-83
2022/12/06 05:32:57;;;;;;;1.80;0.60;;;;;;;15.66;84.23;101583.81;20857369;28;20512;-83
2022/12/06 05:42:59;;;;;;;0.93;0.70;;;;;;;15.65;83.98;101584.78;20857145;28;20494;-83
2022/12/06 05:53:01;;;;;;;0.80;0.60;;;;;;;15.36;83.98;101536.63;20874398;28;20568;-83
2022/12/06 06:03:02;;;;;;;0.45;0.30;;;;;;;15.66;83.76;101592.72;20922081;28;20052;-92
2022/12/06 06:13:04;;;;;;;0.95;0.68;;;;;;;15.41;81.96;101537.16;20960912;28;20504;-89
2022/12/06 06:23:06;;;;;;;0.40;0.40;;;;;;;15.97;81.29;101596.97;20933375;28;20057;-89
2022/12/06 06:33:07;;;;;;;0.93;0.60;;;;;;;16.05;81.28;101616.97;20908665;28;20079;-94
2022/12/06 06:43:18;;;;;;;1.15;0.50;;;;;;;15.83;81.54;101584.47;20948948;28;20048;-89
2022/12/06 06:53:20;;;;;;;1.65;0.40;;;;;;;15.97;82.14;101613.97;20937403;28;20097;-87
2022/12/06 07:03:22;;;;;;;2.15;0.70;;;;;;;15.92;82.43;101606.22;20936392;28;20119;-84
2022/12/06 07:13:26;;;;;;;0.45;0.40;;;;;;;15.69;82.76;101593.47;20893862;28;20040;-84
2022/12/06 07:23:27;;;;;;;1.38;0.40;;;;;;;15.77;83.03;101586.63;20897838;28;20382;-85
2022/12/06 07:33:29;;;;;;;1.45;0.73;;;;;;;15.56;83.64;101545.16;20913858;28;20049;-90
2022/12/06 07:53:51;;;;;;;1.88;0.75;;;;;;;15.76;84.24;101581.38;20921050;28;20059;-87
2022/12/06 08:03:54;;;;;;;2.25;1.23;;;;;;;15.81;84.46;101592.66;20917937;28;20053;-83
2022/12/06 08:13:57;;;;;;;0.90;0.60;;;;;;;15.79;84.70;101598.09;20897193;28;20500;-83
2022/12/06 08:23:58;;;;;;;2.42;0.82;;;;;;;15.79;84.64;101598.09;20911617;28;20091;-83
2022/12/06 08:34:01;;;;;;;1.90;0.63;;;;;;;15.78;84.55;101591.03;20905829;28;20045;-82
2022/12/06 08:44:03;;;;;;;0.70;0.50;;;;;;;15.78;84.56;101598.22;20926217;28;20059;-82
2022/12/06 08:54:06;;;;;;;1.45;0.50;;;;;;;15.71;84.84;101583.50;20918937;28;20053;-83
2022/12/06 09:04:09;;;;;;;1.13;0.40;;;;;;;15.78;84.82;101599.06;20875386;28;20545;-83
2022/12/06 09:14:13;;;;;;;0.95;0.40;;;;;;;15.77;84.84;101605.41;20900131;28;20138;-83
2022/12/06 09:24:22;;;;;;;1.95;0.55;;;;;;;15.80;84.98;101601.66;20917597;28;20056;-83
2022/12/06 09:34:24;;;;;;;1.10;0.38;;;;;;;15.80;85.07;101602.50;20960969;28;20048;-84
2022/12/06 09:44:51;;;;;;;1.20;0.30;;;;;;;15.80;85.14;101594.47;20952452;28;20056;-84
2022/12/06 09:55:14;;;;;;;0.65;0.43;;;;;;;15.52;84.84;101569.53;20916448;28;20334;-84
2022/12/06 10:05:38;;;;;;;1.50;0.60;;;;;;;15.72;84.97;101586.06;20913296;28;20063;-83
2022/12/06 10:15:50;;;;;;;0.93;0.43;;;;;;;15.77;85.08;101597.34;20912235;28;20041;-88
2022/12/06 10:26:15;;;;;;;0.90;0.45;;;;;;;15.76;84.91;101576.84;20937471;28;20450;-87
2022/12/06 10:36:41;;;;;;;1.20;0.40;;;;;;;15.76;84.86;101563.41;20919108;28;20539;-84
2022/12/06 10:47:02;;;;;;;0.38;0.30;;;;;;;15.77;84.97;101556.25;20932281;28;20591;-83
2022/12/06 10:57:09;;;;;;;0.40;0.38;;;;;;;15.77;84.77;101546.34;20905149;28;20044;-89
2022/12/06 11:07:18;;;;;;;0.38;0.28;;;;;;;15.55;84.79;101497.81;20881220;28;20063;-89
2022/12/06 11:17:31;;;;;;;1.08;0.50;;;;;;;15.76;84.73;101541.94;20910511;28;20051;-90
2022/12/06 11:27:39;;;;;;;0.65;0.30;;;;;;;15.77;84.51;101537.44;20911689;28;20515;-90
2022/12/06 11:37:41;;;;;;;0.90;0.50;;;;;;;15.77;84.52;101532.06;20882053;28;20072;-91
2022/12/06 11:47:45;;;;;;;0.70;0.50;;;;;;;15.76;84.69;101525.00;20905775;28;20052;-89
2022/12/06 11:57:55;;;;;;;1.23;0.35;;;;;;;15.62;84.62;101502.63;20924359;28;20060;-85
2022/12/06 12:08:15;;;;;;;0.40;0.25;;;;;;;15.39;84.41;101447.03;20936719;28;20068;-86
2022/12/06 12:18:27;;;;;;;1.17;0.40;;;;;;;15.74;84.37;101508.97;20920308;28;20149;-86
2022/12/06 12:28:33;;;;;;;0.40;0.20;;;;;;;15.74;84.67;101497.41;20912302;28;20055;-86
2022/12/06 12:38:38;;;;;;;0.40;0.28;;;;;;;15.72;84.46;101481.38;20904354;28;20064;-86
2022/12/06 12:48:42;;;;;;;0.40;0.33;;;;;;;15.72;84.44;101467.97;20916779;28;20048;-87
2022/12/06 12:58:46;;;;;;;1.17;0.30;;;;;;;15.42;84.32;101419.97;20912560;28;20053;-93
2022/12/06 13:08:48;;;;;;;0.97;0.30;;;;;;;15.74;83.90;101467.88;20903817;28;20410;-88
2022/12/06 13:18:55;;;;;;;0.22;0.22;;;;;;;15.90;84.65;101459.59;20964128;28;20074;-87
2022/12/06 13:29:04;;;;;;;0.80;0.38;;;;;;;16.06;84.85;101449.47;20947213;28;20049;-87
2022/12/06 13:39:29;;;;;;;0.30;0.30;;;;;;;16.18;84.69;101446.88;20967242;28;20061;-89
2022/12/06 13:49:42;;;;;;;1.03;0.40;;;;;;;16.25;84.41;101445.44;20969050;28;20382;-84
2022/12/06 13:59:49;;;;;;;1.35;0.30;;;;;;;16.18;83.82;101434.31;20933348;28;20063;-85
2022/12/06 14:09:51;;;;;;;0.80;0.40;;;;;;;15.85;83.33;101367.75;20910881;28;20072;-84
2022/12/06 14:19:53;;;;;;;0.73;0.30;;;;;;;16.18;83.35;101420.00;20941403;28;20048;-84
2022/12/06 14:30:20;;;;;;;0.20;0.20;;;;;;;16.27;83.12;101424.69;20977036;28;20049;-86
2022/12/06 14:40:27;;;;;;;0.60;0.30;;;;;;;16.27;82.95;101419.31;20972132;28;20098;-85
2022/12/06 14:50:51;;;;;;;1.00;0.20;;;;;;;16.27;82.76;101411.25;20985885;28;20135;-85
2022/12/06 15:00:59;;;;;;;1.20;0.10;;;;;;;16.24;82.74;101398.94;20942595;28;20441;-85
2022/12/06 15:21:50;;;;;;;0.43;0.20;;;;;;;16.28;82.65;101396.03;20912557;28;20045;-86
2022/12/06 15:31:52;;;;;;;;;;;;;;;16.28;82.44;101386.13;20927338;28;20055;-87
2022/12/06 15:41:54;;;;;;;0.55;0.20;;;;;;;16.28;82.61;101385.28;20896862;28;20399;-87
2022/12/06 15:51:56;;;;;;;0.20;0.20;;;;;;;16.28;82.30;101380.75;20903522;28;20132;-87
2022/12/06 16:01:57;;;;;;;0.60;0.30;;;;;;;16.28;82.29;101359.25;20921134;28;20430;-86
2022/12/06 16:11:59;;;;;;;0.30;0.25;;;;;;;16.28;82.09;101372.69;20928327;28;20048;-88
2022/12/06 16:22:00;;;;;;;0.30;0.30;;;;;;;16.29;82.22;101350.22;20908251;28;20413;-88
2022/12/06 16:32:01;;;;;;;0.95;0.30;;;;;;;16.30;82.26;101349.25;20882319;28;20139;-86
2022/12/06 16:42:04;;;;;;;0.75;0.50;;;;;;;16.29;82.21;101352.91;20848294;28;20378;-87
2022/12/06 16:52:05;;;;;;;0.70;0.30;;;;;;;16.30;82.21;101351.94;20902038;28;20048;-87
2022/12/06 17:02:27;;;;;;;2.25;0.60;;;;;;;16.30;82.32;101335.81;20924348;28;20052;-87
2022/12/06 17:12:29;;;;;;;1.40;0.70;;;;;;;15.74;82.40;101237.00;20883491;28;20123;-90
2022/12/06 17:22:31;;;;;;;1.55;0.50;;;;;;;16.31;82.52;101332.16;20857647;28;20060;-90
2022/12/06 17:32:32;;;;;;;1.90;0.82;;;;;;;16.31;82.40;101326.78;20891154;28;20053;-92
2022/12/06 17:52:54;;;;;;;1.17;0.63;;;;;;;16.31;82.48;101321.41;20861295;28;20059;-88
2022/12/06 18:02:55;;;;;;;2.50;0.70;;;;;;;16.23;82.34;101307.69;20869352;28;20045;-92
2022/12/06 18:12:57;;;;;;;2.53;0.90;;;;;;;16.13;82.33;101287.88;20904860;28;20053;-85
2022/12/06 18:23:03;;;;;;;1.60;0.68;;;;;;;16.33;82.63;101313.22;20898256;28;20053;-87
2022/12/06 18:33:04;;;;;;;2.97;0.65;;;;;;;15.81;82.16;101228.38;20897743;28;20048;-83
2022/12/06 18:43:06;;;;;;;1.30;0.55;;;;;;;16.11;82.12;101269.16;20956308;28;20147;-84
2022/12/06 18:53:09;;;;;;;1.55;0.70;;;;;;;16.18;82.39;101315.25;20931422;28;20076;-84
2022/12/06 19:03:12;;;;;;;0.93;0.57;;;;;;;16.01;82.45;101292.31;20924020;28;20123;-84
2022/12/06 19:13:13;;;;;;;3.33;0.65;;;;;;;15.64;82.46;101239.50;20927035;28;20059;-84
2022/12/06 19:23:15;;;;;;;3.22;1.40;;;;;;;16.04;82.69;101308.22;20938045;28;20060;-84
2022/12/06 19:33:16;;;;;;;2.60;0.90;;;;;;;15.90;82.75;101290.44;20952265;28;20048;-83
2022/12/06 19:53:45;;;;;;;3.58;0.88;;;;;;;15.88;82.89;101289.69;20933060;28;20044;-84
2022/12/06 20:03:47;;;;;;;0.90;0.43;;;;;;;15.85;82.98;101287.19;20922454;28;20049;-84
2022/12/06 20:13:48;;;;;;;1.00;0.50;;;;;;;15.94;82.94;101295.47;20918106;28;20151;-83
2022/12/06 20:23:50;;;;;;;2.03;0.80;;;;;;;15.81;82.99;101274.00;20909981;28;20477;-84
2022/12/06 20:33:56;;;;;;;1.35;0.68;;;;;;;15.92;82.93;101283.97;20928049;28;20049;-84
2022/12/06 20:44:00;;;;;;;1.23;0.70;;;;;;;15.93;83.18;101295.59;20901408;28;20450;-84
2022/12/06 20:54:04;;;;;;;0.57;0.40;;;;;;;15.92;83.09;101297.41;20925252;28;20094;-84
2022/12/06 21:04:06;;;;;;;1.13;0.50;;;;;;;15.70;83.04;101268.56;20940308;28;20052;-84
2022/12/06 21:14:11;;;;;;;1.40;0.70;;;;;;;15.91;83.35;101297.53;20911590;28;20046;-84
2022/12/06 21:24:15;;;;;;;0.93;0.40;;;;;;;15.90;83.17;101279.69;20939778;28;20041;-84
2022/12/06 21:34:16;;;;;;;1.30;0.60;;;;;;;15.73;82.96;101251.41;20945999;28;20049;-84
2022/12/06 21:44:19;;;;;;;1.17;0.55;;;;;;;15.88;83.21;101277.13;20949589;28;20579;-84
2022/12/06 21:54:20;;;;;;;1.58;0.70;;;;;;;15.57;83.21;101236.41;20953879;28;20048;-84
2022/12/06 22:04:21;;;;;;;1.17;0.50;;;;;;;15.89;83.15;101283.34;20960185;28;20055;-84
2022/12/06 22:14:23;;;;;;;1.17;0.65;;;;;;;15.87;83.37;101271.84;20957082;28;20045;-84
2022/12/06 22:24:25;;;;;;;0.95;0.60;;;;;;;15.73;83.35;101257.63;20956707;28;20064;-84
2022/12/06 22:34:26;;;;;;;0.90;0.50;;;;;;;15.86;83.33;101284.41;20955257;28;20049;-84
2022/12/06 22:44:28;;;;;;;1.02;0.50;;;;;;;15.87;83.15;101290.63;20950879;28;20070;-84
2022/12/06 22:54:29;;;;;;;0.93;0.43;;;;;;;15.86;83.24;101286.22;20951170;28;20060;-84
2022/12/06 23:04:31;;;;;;;0.88;0.57;;;;;;;15.86;83.08;101283.53;20933226;28;20060;-84
2022/12/06 23:14:32;;;;;;;0.85;0.40;;;;;;;15.85;83.31;101282.69;20932594;28;20094;-84
2022/12/06 23:24:34;;;;;;;0.77;0.50;;;;;;;15.84;83.09;101280.13;20936565;28;20056;-84
2022/12/06 23:34:36;;;;;;;0.80;0.40;;;;;;;15.84;83.05;101274.75;20932150;28;20063;-84
2022/12/06 23:44:38;;;;;;;1.00;0.40;;;;;;;15.84;83.06;101270.25;20950920;28;20047;-84
2022/12/06 23:54:40;;;;;;;0.98;0.40;;;;;;;15.83;83.17;101256.91;20944132;28;20822;-84
